createdAt,value
2022-10-23T00:00:36.883Z,9.59
2022-10-23T00:01:36.800Z,9.56
2022-10-23T00:02:36.914Z,9.55
2022-10-23T00:03:36.775Z,9.56
2022-10-23T00:04:36.769Z,9.60
2022-10-23T00:05:36.758Z,9.65
2022-10-23T00:06:36.749Z,9.63
2022-10-23T00:07:36.731Z,9.58
2022-10-23T00:08:36.724Z,9.55
2022-10-23T00:09:36.706Z,9.49
2022-10-23T00:10:36.726Z,9.53
2022-10-23T00:11:36.687Z,9.56
2022-10-23T00:12:36.680Z,9.58
2022-10-23T00:13:36.666Z,9.53
2022-10-23T00:14:36.659Z,9.48
2022-10-23T00:15:36.638Z,9.45
2022-10-23T00:16:36.633Z,9.42
2022-10-23T00:17:36.622Z,9.40
2022-10-23T00:18:36.607Z,9.38
2022-10-23T00:19:36.598Z,9.35
2022-10-23T00:20:36.586Z,9.34
2022-10-23T00:21:36.571Z,9.27
2022-10-23T00:22:36.572Z,9.31
2022-10-23T00:23:36.557Z,9.34
2022-10-23T00:24:36.543Z,9.35
2022-10-23T00:25:36.539Z,9.34
2022-10-23T00:26:36.544Z,9.37
2022-10-23T00:27:36.509Z,9.34
2022-10-23T00:28:36.494Z,9.34
2022-10-23T00:29:36.482Z,9.40
2022-10-23T00:30:36.472Z,9.40
2022-10-23T00:31:36.464Z,9.40
2022-10-23T00:32:36.460Z,9.42
2022-10-23T00:33:36.445Z,9.45
2022-10-23T00:34:36.424Z,9.41
2022-10-23T00:35:36.414Z,9.37
2022-10-23T00:36:36.407Z,9.41
2022-10-23T00:37:36.390Z,9.40
2022-10-23T00:38:36.383Z,9.40
2022-10-23T00:39:36.372Z,9.45
2022-10-23T00:40:36.436Z,9.50
2022-10-23T00:41:36.345Z,9.50
2022-10-23T00:42:36.359Z,9.53
2022-10-23T00:43:36.324Z,9.55
2022-10-23T00:44:36.313Z,9.59
2022-10-23T00:45:36.303Z,9.55
2022-10-23T00:46:36.292Z,9.53
2022-10-23T00:47:36.303Z,9.52
2022-10-23T00:48:36.268Z,9.52
2022-10-23T00:49:38.361Z,9.45
2022-10-23T00:50:36.308Z,9.44
2022-10-23T00:51:36.232Z,9.44
2022-10-23T00:52:36.224Z,9.48
2022-10-23T00:53:36.213Z,9.42
2022-10-23T00:54:36.201Z,9.41
2022-10-23T00:55:36.198Z,9.35
2022-10-23T00:56:36.181Z,9.31
2022-10-23T00:57:36.180Z,9.34
2022-10-23T00:58:36.186Z,9.32
2022-10-23T00:59:36.144Z,9.37
2022-10-23T01:00:36.134Z,9.40
2022-10-23T01:01:36.321Z,9.38
2022-10-23T01:02:36.214Z,9.37
2022-10-23T01:03:36.098Z,9.35
2022-10-23T01:04:36.090Z,9.32
2022-10-23T01:05:36.212Z,9.26
2022-10-23T01:06:36.080Z,9.24
2022-10-23T01:07:36.055Z,9.22
2022-10-23T01:08:36.050Z,9.16
2022-10-23T01:09:36.035Z,9.16
2022-10-23T01:10:36.071Z,9.15
2022-10-23T01:11:36.022Z,9.16
2022-10-23T01:12:36.032Z,9.16
2022-10-23T01:13:36.002Z,9.15
2022-10-23T01:14:36.039Z,9.13
2022-10-23T01:15:35.974Z,9.12
2022-10-23T01:16:35.959Z,9.03
2022-10-23T01:17:38.571Z,8.98
2022-10-23T01:18:35.937Z,8.96
2022-10-23T01:19:35.927Z,8.97
2022-10-23T01:20:35.910Z,8.94
2022-10-23T01:21:35.900Z,8.93
2022-10-23T01:22:35.889Z,8.94
2022-10-23T01:23:35.879Z,8.96
2022-10-23T01:24:35.870Z,8.96
2022-10-23T01:25:35.868Z,8.96
2022-10-23T01:26:35.848Z,8.94
2022-10-23T01:27:35.832Z,8.97
2022-10-23T01:28:35.823Z,8.96
2022-10-23T01:29:35.818Z,8.97
2022-10-23T01:30:35.945Z,8.93
2022-10-23T01:31:35.796Z,8.89
2022-10-23T01:32:35.779Z,8.86
2022-10-23T01:33:35.769Z,8.83
2022-10-23T01:34:35.759Z,8.79
2022-10-23T01:35:35.744Z,8.78
2022-10-23T01:36:35.735Z,8.79
2022-10-23T01:37:35.724Z,8.82
2022-10-23T01:38:35.709Z,8.82
2022-10-23T01:39:35.699Z,8.75
2022-10-23T01:40:35.691Z,8.75
2022-10-23T01:41:35.679Z,8.71
2022-10-23T01:42:35.666Z,8.68
2022-10-23T01:43:35.659Z,8.64
2022-10-23T01:44:35.654Z,8.67
2022-10-23T01:45:35.635Z,8.70
2022-10-23T01:46:35.648Z,8.71
2022-10-23T01:47:35.625Z,8.73
2022-10-23T01:48:35.601Z,8.76
2022-10-23T01:49:35.590Z,8.73
2022-10-23T01:50:35.579Z,8.73
2022-10-23T01:51:35.568Z,8.75
2022-10-23T01:52:35.557Z,8.71
2022-10-23T01:53:35.547Z,8.68
2022-10-23T01:54:35.538Z,8.63
2022-10-23T01:55:35.651Z,8.57
2022-10-23T01:56:35.518Z,8.54
2022-10-23T01:57:35.568Z,8.52
2022-10-23T01:58:35.631Z,8.55
2022-10-23T01:59:35.771Z,8.57
2022-10-23T02:00:35.645Z,8.60
2022-10-23T02:01:35.648Z,8.58
2022-10-23T02:02:35.624Z,8.55
2022-10-23T02:03:35.429Z,8.57
2022-10-23T02:04:35.421Z,8.55
2022-10-23T02:05:35.413Z,8.55
2022-10-23T02:06:35.400Z,8.55
2022-10-23T02:07:35.387Z,8.60
2022-10-23T02:08:35.383Z,8.55
2022-10-23T02:09:35.366Z,8.50
2022-10-23T02:10:35.357Z,8.50
2022-10-23T02:11:35.348Z,8.49
2022-10-23T02:12:35.344Z,8.54
2022-10-23T02:13:35.321Z,8.47
2022-10-23T02:14:35.312Z,8.43
2022-10-23T02:15:35.301Z,8.43
2022-10-23T02:16:35.288Z,8.50
2022-10-23T02:17:35.276Z,8.54
2022-10-23T02:18:35.287Z,8.49
2022-10-23T02:19:35.250Z,8.45
2022-10-23T02:20:35.344Z,8.45
2022-10-23T02:21:35.230Z,8.47
2022-10-23T02:22:35.222Z,8.42
2022-10-23T02:23:35.205Z,8.43
2022-10-23T02:24:35.195Z,8.42
2022-10-23T02:25:35.181Z,8.37
2022-10-23T02:26:35.177Z,8.40
2022-10-23T02:27:35.162Z,8.37
2022-10-23T02:28:35.154Z,8.39
2022-10-23T02:29:35.138Z,8.42
2022-10-23T02:30:35.128Z,8.40
2022-10-23T02:31:35.115Z,8.40
2022-10-23T02:32:35.106Z,8.40
2022-10-23T02:33:35.098Z,8.40
2022-10-23T02:34:35.110Z,8.39
2022-10-23T02:35:35.074Z,8.37
2022-10-23T02:36:35.064Z,8.39
2022-10-23T02:37:35.050Z,8.37
2022-10-23T02:38:35.041Z,8.31
2022-10-23T02:39:35.027Z,8.36
2022-10-23T02:40:35.017Z,8.37
2022-10-23T02:41:35.003Z,8.34
2022-10-23T02:42:34.994Z,8.32
2022-10-23T02:43:34.982Z,8.28
2022-10-23T02:44:34.972Z,8.25
2022-10-23T02:45:34.983Z,8.27
2022-10-23T02:46:34.951Z,8.34
2022-10-23T02:47:34.936Z,8.32
2022-10-23T02:48:34.925Z,8.29
2022-10-23T02:49:34.917Z,8.32
2022-10-23T02:50:34.931Z,8.31
2022-10-23T02:51:34.891Z,8.29
2022-10-23T02:52:34.883Z,8.31
2022-10-23T02:53:34.871Z,8.32
2022-10-23T02:54:34.858Z,8.34
2022-10-23T02:55:34.850Z,8.34
2022-10-23T02:56:37.894Z,8.32
2022-10-23T02:57:34.825Z,8.34
2022-10-23T02:58:34.819Z,8.34
2022-10-23T02:59:34.803Z,8.39
2022-10-23T03:00:34.802Z,8.37
2022-10-23T03:01:34.885Z,8.34
2022-10-23T03:02:34.773Z,8.32
2022-10-23T03:03:34.758Z,8.31
2022-10-23T03:04:34.748Z,8.36
2022-10-23T03:05:34.737Z,8.36
2022-10-23T03:06:34.747Z,8.37
2022-10-23T03:07:34.712Z,8.37
2022-10-23T03:08:34.704Z,8.39
2022-10-23T03:09:34.691Z,8.39
2022-10-23T03:10:34.680Z,8.36
2022-10-23T03:11:34.671Z,8.34
2022-10-23T03:12:34.660Z,8.29
2022-10-23T03:13:34.646Z,8.24
2022-10-23T03:14:34.635Z,8.22
2022-10-23T03:15:34.626Z,8.20
2022-10-23T03:16:34.618Z,8.22
2022-10-23T03:17:34.604Z,8.21
2022-10-23T03:18:34.592Z,8.22
2022-10-23T03:19:34.580Z,8.27
2022-10-23T03:20:34.569Z,8.28
2022-10-23T03:21:34.561Z,8.27
2022-10-23T03:22:34.568Z,8.22
2022-10-23T03:23:34.535Z,8.25
2022-10-23T03:24:34.525Z,8.24
2022-10-23T03:25:34.514Z,8.24
2022-10-23T03:26:34.503Z,8.24
2022-10-23T03:27:34.487Z,8.21
2022-10-23T03:28:34.478Z,8.20
2022-10-23T03:29:34.468Z,8.17
2022-10-23T03:30:34.457Z,8.18
2022-10-23T03:31:34.444Z,8.13
2022-10-23T03:32:34.452Z,8.09
2022-10-23T03:33:34.424Z,8.10
2022-10-23T03:34:34.411Z,8.12
2022-10-23T03:35:34.399Z,8.12
2022-10-23T03:36:34.389Z,8.13
2022-10-23T03:37:34.377Z,8.12
2022-10-23T03:38:34.388Z,8.10
2022-10-23T03:39:34.359Z,8.07
2022-10-23T03:40:34.344Z,8.06
2022-10-23T03:41:34.332Z,8.09
2022-10-23T03:42:34.322Z,8.06
2022-10-23T03:43:34.311Z,8.06
2022-10-23T03:44:34.299Z,8.03
2022-10-23T03:45:34.293Z,8.04
2022-10-23T03:46:34.273Z,8.06
2022-10-23T03:47:34.267Z,8.10
2022-10-23T03:48:34.253Z,8.17
2022-10-23T03:49:34.243Z,8.20
2022-10-23T03:50:34.229Z,8.25
2022-10-23T03:51:34.219Z,8.25
2022-10-23T03:52:34.208Z,8.27
2022-10-23T03:53:34.200Z,8.27
2022-10-23T03:54:34.207Z,8.28
2022-10-23T03:55:34.174Z,8.24
2022-10-23T03:56:34.162Z,8.21
2022-10-23T03:57:34.202Z,8.17
2022-10-23T03:58:34.139Z,8.10
2022-10-23T03:59:34.129Z,8.10
2022-10-23T04:00:34.173Z,8.10
2022-10-23T04:01:34.312Z,8.10
2022-10-23T04:02:34.171Z,8.06
2022-10-23T04:03:34.235Z,7.99
2022-10-23T04:04:34.073Z,7.99
2022-10-23T04:05:34.062Z,7.95
2022-10-23T04:06:34.049Z,7.94
2022-10-23T04:07:34.039Z,7.92
2022-10-23T04:08:34.182Z,7.91
2022-10-23T04:09:34.019Z,7.85
2022-10-23T04:10:34.030Z,7.85
2022-10-23T04:11:33.995Z,7.84
2022-10-23T04:12:33.982Z,7.86
2022-10-23T04:13:34.174Z,7.79
2022-10-23T04:14:34.214Z,7.77
2022-10-23T04:15:34.053Z,7.74
2022-10-23T04:16:33.939Z,7.71
2022-10-23T04:17:33.937Z,7.66
2022-10-23T04:18:34.166Z,7.66
2022-10-23T04:19:34.205Z,7.67
2022-10-23T04:20:34.042Z,7.71
2022-10-23T04:21:33.887Z,7.74
2022-10-23T04:22:33.873Z,7.74
2022-10-23T04:23:33.860Z,7.73
2022-10-23T04:24:33.847Z,7.71
2022-10-23T04:25:34.296Z,7.70
2022-10-23T04:26:33.870Z,7.66
2022-10-23T04:27:33.821Z,7.70
2022-10-23T04:28:33.803Z,7.73
2022-10-23T04:29:33.795Z,7.73
2022-10-23T04:30:33.782Z,7.70
2022-10-23T04:31:33.771Z,7.67
2022-10-23T04:32:33.759Z,7.69
2022-10-23T04:33:33.750Z,7.67
2022-10-23T04:34:33.736Z,7.70
2022-10-23T04:35:33.731Z,7.71
2022-10-23T04:36:33.714Z,7.74
2022-10-23T04:37:33.703Z,7.74
2022-10-23T04:38:33.693Z,7.77
2022-10-23T04:39:33.683Z,7.79
2022-10-23T04:40:33.670Z,7.76
2022-10-23T04:41:33.671Z,7.77
2022-10-23T04:42:33.679Z,7.79
2022-10-23T04:43:33.639Z,7.74
2022-10-23T04:44:33.625Z,7.74
2022-10-23T04:45:33.615Z,7.73
2022-10-23T04:46:33.602Z,7.74
2022-10-23T04:47:33.597Z,7.70
2022-10-23T04:48:33.580Z,7.63
2022-10-23T04:49:33.570Z,7.60
2022-10-23T04:50:33.596Z,7.66
2022-10-23T04:51:33.547Z,7.70
2022-10-23T04:52:33.535Z,7.74
2022-10-23T04:53:33.526Z,7.77
2022-10-23T04:54:33.512Z,7.79
2022-10-23T04:55:33.503Z,7.79
2022-10-23T04:56:33.490Z,7.77
2022-10-23T04:57:33.482Z,7.77
2022-10-23T04:58:33.493Z,7.84
2022-10-23T04:59:33.460Z,7.84
2022-10-23T05:00:33.494Z,7.86
2022-10-23T05:01:33.542Z,7.88
2022-10-23T05:02:33.431Z,7.89
2022-10-23T05:03:33.413Z,7.86
2022-10-23T05:04:33.401Z,7.88
2022-10-23T05:05:33.393Z,7.85
2022-10-23T05:06:33.378Z,7.85
2022-10-23T05:07:33.369Z,7.84
2022-10-23T05:08:33.356Z,7.82
2022-10-23T05:09:33.372Z,7.77
2022-10-23T05:10:33.335Z,7.79
2022-10-23T05:11:33.327Z,7.73
2022-10-23T05:12:33.314Z,7.73
2022-10-23T05:13:33.304Z,7.69
2022-10-23T05:14:33.311Z,7.71
2022-10-23T05:15:33.349Z,7.67
2022-10-23T05:16:33.269Z,7.69
2022-10-23T05:17:33.259Z,7.71
2022-10-23T05:18:33.247Z,7.71
2022-10-23T05:19:33.235Z,7.82
2022-10-23T05:20:33.223Z,7.86
2022-10-23T05:21:33.214Z,7.85
2022-10-23T05:22:33.201Z,7.84
2022-10-23T05:23:33.191Z,7.85
2022-10-23T05:24:33.181Z,7.86
2022-10-23T05:25:33.170Z,7.89
2022-10-23T05:26:33.159Z,7.88
2022-10-23T05:27:33.148Z,7.89
2022-10-23T05:28:33.134Z,7.94
2022-10-23T05:29:33.126Z,7.95
2022-10-23T05:30:33.138Z,7.92
2022-10-23T05:31:33.099Z,7.91
2022-10-23T05:32:33.099Z,7.85
2022-10-23T05:33:33.079Z,7.84
2022-10-23T05:34:33.065Z,7.82
2022-10-23T05:35:33.062Z,7.82
2022-10-23T05:36:33.043Z,7.81
2022-10-23T05:37:33.034Z,7.77
2022-10-23T05:38:33.021Z,7.74
2022-10-23T05:39:33.012Z,7.69
2022-10-23T05:40:33.098Z,7.69
2022-10-23T05:41:32.990Z,7.71
2022-10-23T05:42:33.837Z,7.70
2022-10-23T05:43:32.968Z,7.73
2022-10-23T05:44:32.957Z,7.71
2022-10-23T05:45:32.947Z,7.73
2022-10-23T05:46:32.958Z,7.71
2022-10-23T05:47:32.923Z,7.76
2022-10-23T05:48:35.210Z,7.74
2022-10-23T05:49:32.901Z,7.74
2022-10-23T05:50:32.889Z,7.73
2022-10-23T05:51:32.887Z,7.77
2022-10-23T05:52:32.864Z,7.79
2022-10-23T05:53:32.889Z,7.82
2022-10-23T05:54:32.842Z,7.84
2022-10-23T05:55:32.832Z,7.92
2022-10-23T05:56:32.819Z,7.96
2022-10-23T05:57:32.810Z,7.99
2022-10-23T05:58:32.799Z,7.96
2022-10-23T05:59:32.788Z,7.95
2022-10-23T06:00:32.775Z,7.92
2022-10-23T06:01:32.895Z,7.89
2022-10-23T06:02:32.802Z,7.89
2022-10-23T06:03:32.745Z,7.89
2022-10-23T06:04:32.734Z,7.88
2022-10-23T06:05:32.924Z,7.86
2022-10-23T06:06:32.709Z,7.96
2022-10-23T06:07:35.138Z,7.95
2022-10-23T06:08:32.685Z,7.96
2022-10-23T06:09:32.677Z,8.02
2022-10-23T06:10:32.670Z,8.02
2022-10-23T06:11:32.654Z,8.00
2022-10-23T06:12:32.642Z,8.00
2022-10-23T06:13:32.632Z,8.03
2022-10-23T06:14:32.627Z,8.02
2022-10-23T06:15:32.607Z,8.00
2022-10-23T06:16:32.595Z,8.03
2022-10-23T06:17:32.589Z,8.06
2022-10-23T06:18:32.606Z,8.04
2022-10-23T06:19:32.568Z,8.07
2022-10-23T06:20:32.559Z,8.10
2022-10-23T06:21:32.543Z,8.07
2022-10-23T06:22:32.534Z,8.20
2022-10-23T06:23:32.669Z,8.22
2022-10-23T06:24:32.506Z,8.22
2022-10-23T06:25:32.497Z,8.25
2022-10-23T06:26:32.485Z,8.25
2022-10-23T06:27:32.477Z,8.27
2022-10-23T06:28:32.464Z,8.28
2022-10-23T06:29:32.458Z,8.28
2022-10-23T06:30:32.485Z,8.27
2022-10-23T06:31:32.434Z,8.36
2022-10-23T06:32:32.420Z,8.37
2022-10-23T06:33:32.409Z,8.39
2022-10-23T06:34:32.417Z,8.39
2022-10-23T06:35:32.385Z,8.40
2022-10-23T06:36:32.373Z,8.47
2022-10-23T06:37:32.364Z,8.55
2022-10-23T06:38:32.349Z,8.58
2022-10-23T06:39:32.482Z,8.64
2022-10-23T06:40:32.331Z,8.65
2022-10-23T06:41:32.321Z,8.70
2022-10-23T06:42:32.307Z,8.75
2022-10-23T06:43:32.299Z,8.76
2022-10-23T06:44:32.294Z,8.78
2022-10-23T06:45:32.275Z,8.76
2022-10-23T06:46:32.262Z,8.79
2022-10-23T06:47:32.250Z,8.80
2022-10-23T06:48:32.238Z,8.83
2022-10-23T06:49:32.229Z,8.86
2022-10-23T06:50:32.245Z,8.86
2022-10-23T06:51:32.205Z,8.93
2022-10-23T06:52:46.670Z,8.96
2022-10-23T06:53:33.209Z,8.94
2022-10-23T06:54:32.174Z,8.98
2022-10-23T06:55:32.280Z,8.97
2022-10-23T06:56:32.156Z,9.00
2022-10-23T06:57:32.141Z,9.03
2022-10-23T06:58:32.128Z,9.06
2022-10-23T06:59:32.120Z,9.10
2022-10-23T07:00:32.158Z,9.12
2022-10-23T07:01:32.359Z,9.17
2022-10-23T07:02:32.085Z,9.19
2022-10-23T07:03:32.078Z,9.26
2022-10-23T07:04:32.064Z,9.32
2022-10-23T07:05:32.050Z,9.37
2022-10-23T07:06:32.063Z,9.40
2022-10-23T07:07:32.035Z,9.45
2022-10-23T07:08:32.015Z,9.52
2022-10-23T07:09:32.007Z,9.62
2022-10-23T07:10:31.996Z,9.70
2022-10-23T07:11:31.983Z,9.80
2022-10-23T07:12:31.973Z,9.81
2022-10-23T07:13:31.962Z,9.89
2022-10-23T07:14:31.948Z,9.92
2022-10-23T07:15:31.940Z,9.98
2022-10-23T07:16:31.925Z,9.99
2022-10-23T07:17:31.917Z,10.06
2022-10-23T07:18:31.965Z,10.11
2022-10-23T07:19:31.891Z,10.16
2022-10-23T07:20:31.884Z,10.18
2022-10-23T07:21:31.870Z,10.25
2022-10-23T07:22:31.881Z,10.31
2022-10-23T07:23:31.850Z,10.34
2022-10-23T07:24:31.843Z,10.43
2022-10-23T07:25:31.824Z,10.46
2022-10-23T07:26:31.810Z,10.47
2022-10-23T07:27:31.801Z,10.46
2022-10-23T07:28:31.791Z,10.52
2022-10-23T07:29:31.782Z,10.57
2022-10-23T07:30:31.769Z,10.65
2022-10-23T07:31:31.756Z,10.66
2022-10-23T07:32:31.752Z,10.70
2022-10-23T07:33:31.735Z,10.75
2022-10-23T07:34:31.725Z,10.73
2022-10-23T07:35:34.279Z,10.80
2022-10-23T07:36:31.703Z,10.80
2022-10-23T07:37:31.690Z,10.86
2022-10-23T07:38:31.698Z,10.88
2022-10-23T07:39:31.670Z,10.91
2022-10-23T07:40:31.659Z,10.95
2022-10-23T07:41:31.643Z,10.94
2022-10-23T07:42:31.631Z,10.99
2022-10-23T07:44:31.608Z,11.02
2022-10-23T07:45:31.644Z,11.03
2022-10-23T07:46:31.584Z,11.06
2022-10-23T07:47:31.578Z,11.09
2022-10-23T07:48:31.566Z,11.13
2022-10-23T07:49:31.557Z,11.17
2022-10-23T07:50:31.541Z,11.24
2022-10-23T07:51:31.529Z,11.26
2022-10-23T07:52:35.024Z,11.33
2022-10-23T07:53:31.507Z,11.35
2022-10-23T07:54:31.528Z,11.39
2022-10-23T07:55:31.498Z,11.44
2022-10-23T07:56:31.515Z,11.45
2022-10-23T07:57:31.463Z,11.45
2022-10-23T07:58:31.600Z,11.45
2022-10-23T07:59:35.796Z,11.48
2022-10-23T08:00:31.433Z,11.45
2022-10-23T08:01:31.647Z,11.42
2022-10-23T08:02:31.453Z,11.46
2022-10-23T08:03:31.396Z,11.44
2022-10-23T08:04:31.384Z,11.46
2022-10-23T08:05:31.371Z,11.49
2022-10-23T08:06:31.365Z,11.46
2022-10-23T08:07:31.347Z,11.46
2022-10-23T08:08:31.339Z,11.44
2022-10-23T08:09:31.328Z,11.46
2022-10-23T08:10:31.344Z,11.48
2022-10-23T08:11:31.315Z,11.49
2022-10-23T08:12:31.309Z,11.48
2022-10-23T08:13:31.283Z,11.53
2022-10-23T08:14:31.271Z,11.49
2022-10-23T08:15:31.257Z,11.53
2022-10-23T08:16:31.249Z,11.59
2022-10-23T08:17:31.238Z,11.63
2022-10-23T08:18:31.225Z,11.63
2022-10-23T08:19:31.211Z,11.64
2022-10-23T08:20:31.206Z,11.69
2022-10-23T08:21:31.197Z,11.70
2022-10-23T08:22:31.207Z,11.67
2022-10-23T08:23:31.168Z,11.67
2022-10-23T08:24:31.158Z,11.74
2022-10-23T08:26:31.165Z,11.77
2022-10-23T08:27:31.125Z,11.75
2022-10-23T08:28:31.113Z,11.78
2022-10-23T08:29:31.099Z,11.78
2022-10-23T08:30:31.091Z,11.75
2022-10-23T08:31:31.078Z,11.72
2022-10-23T08:32:31.068Z,11.75
2022-10-23T08:33:31.058Z,11.75
2022-10-23T08:34:31.050Z,11.75
2022-10-23T08:35:31.037Z,11.78
2022-10-23T08:36:31.035Z,11.84
2022-10-23T08:37:31.010Z,11.87
2022-10-23T08:38:31.002Z,11.93
2022-10-23T08:39:30.991Z,11.98
2022-10-23T08:40:30.980Z,12.00
2022-10-23T08:41:30.972Z,11.98
2022-10-23T08:42:30.988Z,12.03
2022-10-23T08:43:30.954Z,12.04
2022-10-23T08:44:30.936Z,12.08
2022-10-23T08:45:30.924Z,12.13
2022-10-23T08:46:30.913Z,12.16
2022-10-23T08:47:30.900Z,12.19
2022-10-23T08:48:30.907Z,12.29
2022-10-23T08:49:30.881Z,12.23
2022-10-23T08:50:30.907Z,12.23
2022-10-23T08:51:30.859Z,12.29
2022-10-23T08:52:30.849Z,12.36
2022-10-23T08:53:30.844Z,12.29
2022-10-23T08:54:30.825Z,12.36
2022-10-23T08:55:30.816Z,12.41
2022-10-23T08:56:30.805Z,12.55
2022-10-23T08:57:30.794Z,12.59
2022-10-23T08:58:30.818Z,12.59
2022-10-23T08:59:30.838Z,12.69
2022-10-23T09:00:30.885Z,12.80
2022-10-23T09:01:31.053Z,12.88
2022-10-23T09:02:30.867Z,12.98
2022-10-23T09:03:30.931Z,12.99
2022-10-23T09:04:30.879Z,13.07
2022-10-23T09:05:30.890Z,13.13
2022-10-23T09:06:30.892Z,13.17
2022-10-23T09:07:30.682Z,13.21
2022-10-23T09:08:30.668Z,13.21
2022-10-23T09:09:30.658Z,13.21
2022-10-23T09:10:30.647Z,13.19
2022-10-23T09:11:30.788Z,13.25
2022-10-23T09:12:30.623Z,13.19
2022-10-23T09:13:30.610Z,13.29
2022-10-23T09:14:30.639Z,13.29
2022-10-23T09:15:30.605Z,13.35
2022-10-23T09:16:30.579Z,13.39
2022-10-23T09:17:30.568Z,13.41
2022-10-23T09:18:30.556Z,13.43
2022-10-23T09:19:30.545Z,13.48
2022-10-23T09:20:30.708Z,13.44
2022-10-23T09:21:30.544Z,13.55
2022-10-23T09:22:30.511Z,13.65
2022-10-23T09:23:30.498Z,13.72
2022-10-23T09:24:30.490Z,13.80
2022-10-23T09:25:30.479Z,13.93
2022-10-23T09:26:30.727Z,13.94
2022-10-23T09:27:30.470Z,13.94
2022-10-23T09:28:30.446Z,13.94
2022-10-23T09:29:30.430Z,14.01
2022-10-23T09:30:30.444Z,14.11
2022-10-23T09:31:30.414Z,14.21
2022-10-23T09:32:30.400Z,14.31
2022-10-23T09:33:30.386Z,14.29
2022-10-23T09:34:30.374Z,14.30
2022-10-23T09:35:30.360Z,14.29
2022-10-23T09:36:30.352Z,14.31
2022-10-23T09:37:30.341Z,14.42
2022-10-23T09:38:30.338Z,14.53
2022-10-23T09:39:30.357Z,14.72
2022-10-23T09:40:30.321Z,14.85
2022-10-23T09:41:30.300Z,14.95
2022-10-23T09:42:30.289Z,14.93
2022-10-23T09:43:30.277Z,15.03
2022-10-23T09:44:30.276Z,15.12
2022-10-23T09:45:30.254Z,15.16
2022-10-23T09:46:30.267Z,15.18
2022-10-23T09:47:30.232Z,15.22
2022-10-23T09:48:30.223Z,15.19
2022-10-23T09:49:30.207Z,15.25
2022-10-23T09:50:30.224Z,15.25
2022-10-23T09:51:30.196Z,15.27
2022-10-23T09:52:30.174Z,15.28
2022-10-23T09:53:30.161Z,15.23
2022-10-23T09:54:30.151Z,15.31
2022-10-23T09:55:30.143Z,15.28
2022-10-23T09:56:30.129Z,15.28
2022-10-23T09:57:30.112Z,15.27
2022-10-23T09:58:30.106Z,15.30
2022-10-23T09:59:30.094Z,15.41
2022-10-23T10:00:30.078Z,15.49
2022-10-23T10:01:30.222Z,15.52
2022-10-23T10:02:30.105Z,15.74
2022-10-23T10:03:30.070Z,15.99
2022-10-23T10:04:30.036Z,16.14
2022-10-23T10:05:30.020Z,16.25
2022-10-23T10:06:30.097Z,16.30
2022-10-23T10:07:32.211Z,16.33
2022-10-23T10:08:29.991Z,16.25
2022-10-23T10:09:29.975Z,16.11
2022-10-23T10:10:29.967Z,16.16
2022-10-23T10:11:29.956Z,16.11
2022-10-23T10:12:29.945Z,16.07
2022-10-23T10:13:29.973Z,16.10
2022-10-23T10:14:29.962Z,16.14
2022-10-23T10:15:29.908Z,16.25
2022-10-23T10:16:29.964Z,16.26
2022-10-23T10:17:29.887Z,16.27
2022-10-23T10:18:29.902Z,16.14
2022-10-23T10:19:29.874Z,16.01
2022-10-23T10:20:29.860Z,15.93
2022-10-23T10:21:29.842Z,15.93
2022-10-23T10:22:29.833Z,15.95
2022-10-23T10:23:29.821Z,16.06
2022-10-23T10:24:29.811Z,16.14
2022-10-23T10:25:29.816Z,16.25
2022-10-23T10:27:29.975Z,16.08
2022-10-23T10:28:29.766Z,16.04
2022-10-23T10:29:29.757Z,16.03
2022-10-23T10:30:29.746Z,15.91
2022-10-23T10:31:29.735Z,15.99
2022-10-23T10:32:29.728Z,15.98
2022-10-23T10:33:29.708Z,15.95
2022-10-23T10:34:29.723Z,16.01
2022-10-23T10:35:29.707Z,15.89
2022-10-23T10:36:29.867Z,15.77
2022-10-23T10:37:29.665Z,15.81
2022-10-23T10:38:29.654Z,15.77
2022-10-23T10:39:29.643Z,15.81
2022-10-23T10:40:29.634Z,15.86
2022-10-23T10:41:29.622Z,15.81
2022-10-23T10:42:29.611Z,15.88
2022-10-23T10:43:29.597Z,15.76
2022-10-23T10:44:29.592Z,15.78
2022-10-23T10:45:29.577Z,15.84
2022-10-23T10:46:29.572Z,15.89
2022-10-23T10:47:29.566Z,15.88
2022-10-23T10:48:29.552Z,15.85
2022-10-23T10:49:29.531Z,15.89
2022-10-23T10:50:29.545Z,15.89
2022-10-23T10:51:29.514Z,15.93
2022-10-23T10:52:29.501Z,15.99
2022-10-23T10:53:29.488Z,15.89
2022-10-23T10:54:29.484Z,15.88
2022-10-23T10:55:29.470Z,15.89
2022-10-23T10:56:29.455Z,15.93
2022-10-23T10:57:29.449Z,16.01
2022-10-23T10:58:29.434Z,16.06
2022-10-23T10:59:29.657Z,16.23
2022-10-23T11:00:29.418Z,16.27
2022-10-23T11:01:29.489Z,16.42
2022-10-23T11:02:29.399Z,16.45
2022-10-23T11:03:29.382Z,16.48
2022-10-23T11:04:29.369Z,16.55
2022-10-23T11:05:29.357Z,16.50
2022-10-23T11:06:29.373Z,16.57
2022-10-23T11:07:29.334Z,16.55
2022-10-23T11:08:29.321Z,16.50
2022-10-23T11:09:29.311Z,16.50
2022-10-23T11:10:29.306Z,16.50
2022-10-23T11:11:29.288Z,16.48
2022-10-23T11:12:29.416Z,16.57
2022-10-23T11:13:29.555Z,16.72
2022-10-23T11:14:29.268Z,16.78
2022-10-23T11:15:29.244Z,16.82
2022-10-23T11:16:29.233Z,16.81
2022-10-23T11:17:29.220Z,16.95
2022-10-23T11:18:29.212Z,16.91
2022-10-23T11:19:29.199Z,16.84
2022-10-23T11:20:29.189Z,16.92
2022-10-23T11:21:29.178Z,17.06
2022-10-23T11:22:29.193Z,17.07
2022-10-23T11:23:29.259Z,17.00
2022-10-23T11:24:29.379Z,16.99
2022-10-23T11:25:29.142Z,16.98
2022-10-23T11:26:29.166Z,17.05
2022-10-23T11:27:29.204Z,17.07
2022-10-23T11:28:29.203Z,17.10
2022-10-23T11:29:29.240Z,17.18
2022-10-23T11:30:29.246Z,17.20
2022-10-23T11:31:29.215Z,17.20
2022-10-23T11:32:29.090Z,17.20
2022-10-23T11:33:29.282Z,17.20
2022-10-23T11:34:29.063Z,17.24
2022-10-23T11:35:29.021Z,17.27
2022-10-23T11:36:29.042Z,17.33
2022-10-23T11:37:29.017Z,17.27
2022-10-23T11:38:29.295Z,17.22
2022-10-23T11:39:29.278Z,17.22
2022-10-23T11:40:28.966Z,17.25
2022-10-23T11:41:28.955Z,17.35
2022-10-23T11:42:28.953Z,17.22
2022-10-23T11:43:28.929Z,17.20
2022-10-23T11:44:28.926Z,17.27
2022-10-23T11:45:28.917Z,17.25
2022-10-23T11:46:28.898Z,17.18
2022-10-23T11:47:28.888Z,17.28
2022-10-23T11:48:28.878Z,17.33
2022-10-23T11:49:28.862Z,17.40
2022-10-23T11:50:28.860Z,17.33
2022-10-23T11:51:28.842Z,17.36
2022-10-23T11:52:28.830Z,17.45
2022-10-23T11:53:28.818Z,17.49
2022-10-23T11:54:28.856Z,17.55
2022-10-23T11:55:28.839Z,17.42
2022-10-23T11:56:28.789Z,17.40
2022-10-23T11:58:28.766Z,17.53
2022-10-23T11:59:28.750Z,17.54
2022-10-23T12:00:28.746Z,17.57
2022-10-23T12:01:28.778Z,17.53
2022-10-23T12:02:28.829Z,17.51
2022-10-23T12:03:28.709Z,17.54
2022-10-23T12:04:28.697Z,17.65
2022-10-23T12:05:28.687Z,17.66
2022-10-23T12:06:28.673Z,17.71
2022-10-23T12:07:28.682Z,17.68
2022-10-23T12:08:28.672Z,17.58
2022-10-23T12:09:28.644Z,17.63
2022-10-23T12:10:28.656Z,17.66
2022-10-23T12:11:28.618Z,17.68
2022-10-23T12:12:28.607Z,17.53
2022-10-23T12:13:28.599Z,17.47
2022-10-23T12:14:28.590Z,17.49
2022-10-23T12:15:28.572Z,17.55
2022-10-23T12:16:28.560Z,17.53
2022-10-23T12:17:28.556Z,17.66
2022-10-23T12:18:28.548Z,17.74
2022-10-23T12:19:28.540Z,17.87
2022-10-23T12:20:28.562Z,17.95
2022-10-23T12:21:28.543Z,17.95
2022-10-23T12:22:28.551Z,18.04
2022-10-23T12:23:28.485Z,17.98
2022-10-23T12:24:28.476Z,18.07
2022-10-23T12:25:28.466Z,18.05
2022-10-23T12:26:28.475Z,18.19
2022-10-23T12:27:28.440Z,18.11
2022-10-23T12:28:28.439Z,18.17
2022-10-23T12:29:28.417Z,18.25
2022-10-23T12:30:28.407Z,18.35
2022-10-23T12:31:28.413Z,18.32
2022-10-23T12:32:28.416Z,18.42
2022-10-23T12:33:28.373Z,18.42
2022-10-23T12:34:28.360Z,18.47
2022-10-23T12:35:28.351Z,18.54
2022-10-23T12:36:28.338Z,18.51
2022-10-23T12:37:28.331Z,18.54
2022-10-23T12:38:32.455Z,18.56
2022-10-23T12:39:28.312Z,18.59
2022-10-23T12:40:28.294Z,18.57
2022-10-23T12:41:28.287Z,18.56
2022-10-23T12:42:28.304Z,18.39
2022-10-23T12:43:28.263Z,18.36
2022-10-23T12:44:28.248Z,18.39
2022-10-23T12:45:28.242Z,18.23
2022-10-23T12:46:28.227Z,18.17
2022-10-23T12:47:28.287Z,18.13
2022-10-23T12:48:28.207Z,18.14
2022-10-23T12:49:28.197Z,18.23
2022-10-23T12:50:28.183Z,18.26
2022-10-23T12:51:28.174Z,18.32
2022-10-23T12:52:28.162Z,18.28
2022-10-23T12:53:28.161Z,18.25
2022-10-23T12:54:28.143Z,18.19
2022-10-23T12:55:29.786Z,18.21
2022-10-23T12:56:29.553Z,18.11
2022-10-23T12:57:28.107Z,18.17
2022-10-23T12:58:28.115Z,18.07
2022-10-23T12:59:28.088Z,18.04
2022-10-23T13:00:28.074Z,17.99
2022-10-23T13:01:28.147Z,18.07
2022-10-23T13:02:28.161Z,18.09
2022-10-23T13:03:28.041Z,18.11
2022-10-23T13:04:28.028Z,18.05
2022-10-23T13:05:28.018Z,18.17
2022-10-23T13:06:28.022Z,18.21
2022-10-23T13:07:27.995Z,18.16
2022-10-23T13:08:27.985Z,18.25
2022-10-23T13:09:27.972Z,18.21
2022-10-23T13:10:27.968Z,18.26